createdAt,value
2018-02-24T00:00:02.670Z,10.45
2018-02-24T00:02:30.907Z,8.75
2018-02-24T00:04:58.449Z,11.05
2018-02-24T00:07:25.908Z,10.55
2018-02-24T00:09:53.387Z,10.07
2018-02-24T00:12:20.875Z,10.25
2018-02-24T00:14:49.106Z,10.10
2018-02-24T00:17:16.568Z,9.75
2018-02-24T00:19:44.068Z,11.40
2018-02-24T00:22:14.020Z,10.98
2018-02-24T00:24:41.577Z,10.25
2018-02-24T00:27:09.046Z,9.93
2018-02-24T00:29:36.514Z,11.73
2018-02-24T00:32:03.983Z,11.63
2018-02-24T00:34:31.503Z,11.27
2018-02-24T00:36:59.062Z,11.12
2018-02-24T00:39:26.516Z,11.95
2018-02-24T00:41:54.081Z,10.05
2018-02-24T00:44:21.548Z,13.30
2018-02-24T00:46:49.034Z,12.35
2018-02-24T00:49:17.282Z,11.20
2018-02-24T00:51:44.743Z,10.77
2018-02-24T00:54:12.240Z,12.32
2018-02-24T00:56:40.479Z,12.75
2018-02-24T00:59:07.956Z,12.10
2018-02-24T01:01:35.444Z,13.00
2018-02-24T01:04:03.686Z,12.35
2018-02-24T01:06:31.146Z,13.15
2018-02-24T01:08:58.627Z,13.80
2018-02-24T01:11:26.863Z,11.18
2018-02-24T01:13:54.387Z,11.80
2018-02-24T01:16:21.872Z,14.30
2018-02-24T01:18:49.333Z,15.10
2018-02-24T01:21:16.962Z,15.20
2018-02-24T01:23:44.518Z,13.07
2018-02-24T01:26:12.078Z,14.23
2018-02-24T01:28:39.534Z,13.15
2018-02-24T01:31:07.093Z,13.77
2018-02-24T01:33:34.651Z,14.15
2018-02-24T01:36:02.114Z,12.60
2018-02-24T01:38:29.605Z,14.10
2018-02-24T01:40:57.081Z,15.00
2018-02-24T01:43:25.322Z,15.48
2018-02-24T01:45:52.805Z,15.52
2018-02-24T01:48:21.042Z,16.48
2018-02-24T01:50:48.515Z,13.55
2018-02-24T01:53:15.997Z,13.88
2018-02-24T01:55:43.546Z,16.60
2018-02-24T01:58:11.024Z,16.10
2018-02-24T02:00:39.340Z,16.42
2018-02-24T02:03:06.813Z,15.30
2018-02-24T02:05:34.278Z,16.48
2018-02-24T02:08:01.770Z,16.23
2018-02-24T02:10:30.015Z,15.93
2018-02-24T02:12:57.533Z,16.40
2018-02-24T02:15:25.092Z,17.02
2018-02-24T02:17:52.616Z,16.12
2018-02-24T02:20:20.863Z,17.90
2018-02-24T02:22:49.113Z,18.23
2018-02-24T02:25:16.664Z,16.85
2018-02-24T02:27:44.113Z,18.35
2018-02-24T02:30:11.615Z,17.90
2018-02-24T02:32:39.095Z,17.02
2018-02-24T02:35:07.404Z,18.12
2018-02-24T02:37:34.899Z,14.82
2018-02-24T02:40:02.366Z,18.87
2018-02-24T02:42:29.835Z,15.73
2018-02-24T02:44:58.093Z,17.65
2018-02-24T02:47:25.561Z,17.55
2018-02-24T02:49:53.030Z,15.95
2018-02-24T02:52:21.277Z,16.92
2018-02-24T02:54:48.750Z,14.23
2018-02-24T02:57:16.208Z,18.00
2018-02-24T02:59:44.464Z,17.52
2018-02-24T03:02:11.937Z,17.08
2018-02-24T03:04:39.402Z,17.95
2018-02-24T03:07:07.674Z,17.08
2018-02-24T03:09:35.910Z,17.70
2018-02-24T03:12:03.390Z,18.05
2018-02-24T03:14:31.005Z,17.37
2018-02-24T03:16:58.469Z,15.80
2018-02-24T03:19:25.949Z,16.25
2018-02-24T03:21:53.422Z,16.40
2018-02-24T03:24:20.894Z,14.63
2018-02-24T03:26:48.365Z,14.82
2018-02-24T03:29:16.594Z,17.30
2018-02-24T03:31:44.120Z,14.52
2018-02-24T03:34:11.677Z,14.90
2018-02-24T03:36:39.140Z,15.75
2018-02-24T03:39:06.606Z,15.38
2018-02-24T03:41:34.099Z,15.75
2018-02-24T03:44:01.571Z,16.20
2018-02-24T03:46:29.811Z,15.73
2018-02-24T03:48:57.315Z,15.65
2018-02-24T03:51:24.793Z,15.07
2018-02-24T03:53:52.255Z,13.95
2018-02-24T03:56:19.756Z,14.50
2018-02-24T03:58:47.226Z,14.23
2018-02-24T04:01:15.538Z,14.38
2018-02-24T04:03:43.018Z,15.65
2018-02-24T04:06:10.497Z,13.75
2018-02-24T04:08:38.009Z,14.15
2018-02-24T04:11:05.572Z,16.05
2018-02-24T04:13:33.042Z,14.07
2018-02-24T04:16:00.633Z,14.85
2018-02-24T04:18:28.070Z,13.50
2018-02-24T04:20:55.544Z,16.85
2018-02-24T04:23:23.017Z,14.32
2018-02-24T04:25:51.254Z,15.07
2018-02-24T04:28:18.722Z,16.98
2018-02-24T04:30:46.252Z,17.10
2018-02-24T04:33:14.452Z,16.73
2018-02-24T04:35:41.916Z,15.60
2018-02-24T04:38:09.410Z,14.85
2018-02-24T04:40:36.989Z,14.43
2018-02-24T04:43:04.449Z,16.17
2018-02-24T04:45:31.935Z,13.80
2018-02-24T04:47:59.395Z,14.48
2018-02-24T04:50:26.863Z,13.90
2018-02-24T04:52:54.372Z,16.25
2018-02-24T04:55:21.834Z,16.08
2018-02-24T04:57:49.303Z,14.80
2018-02-24T05:00:16.775Z,15.40
2018-02-24T05:02:44.249Z,14.05
2018-02-24T05:05:11.722Z,15.85
2018-02-24T05:07:39.978Z,16.90
2018-02-24T05:10:07.449Z,16.33
2018-02-24T05:12:35.679Z,15.45
2018-02-24T05:15:03.161Z,16.00
2018-02-24T05:17:30.626Z,15.05
2018-02-24T05:19:58.131Z,15.77
2018-02-24T05:22:25.605Z,14.70
2018-02-24T05:24:53.135Z,13.55
2018-02-24T05:27:20.542Z,15.13
2018-02-24T05:29:49.527Z,16.45
2018-02-24T05:32:16.996Z,12.63
2018-02-24T05:34:44.466Z,15.00
2018-02-24T05:37:12.731Z,13.60
2018-02-24T05:39:40.205Z,15.82
2018-02-24T05:42:08.446Z,14.30
2018-02-24T05:44:35.946Z,15.60
2018-02-24T05:47:04.186Z,13.60
2018-02-24T05:49:31.670Z,15.18
2018-02-24T05:51:59.911Z,14.35
2018-02-24T05:54:27.377Z,14.45
2018-02-24T05:56:54.918Z,15.55
2018-02-24T05:59:22.378Z,14.13
2018-02-24T06:01:49.839Z,14.70
2018-02-24T06:04:17.347Z,15.00
2018-02-24T06:06:44.803Z,15.38
2018-02-24T06:09:12.274Z,14.68
2018-02-24T06:11:39.775Z,16.60
2018-02-24T06:14:07.243Z,16.45
2018-02-24T06:16:35.514Z,16.83
2018-02-24T06:19:03.007Z,15.70
2018-02-24T06:21:30.475Z,15.07
2018-02-24T06:23:57.935Z,13.68
2018-02-24T06:26:25.414Z,15.10
2018-02-24T06:28:52.878Z,14.25
2018-02-24T06:31:20.410Z,15.23
2018-02-24T06:33:47.871Z,14.05
2018-02-24T06:36:15.343Z,14.85
2018-02-24T06:38:43.447Z,15.68
2018-02-24T06:41:10.966Z,14.75
2018-02-24T06:43:42.586Z,14.75
2018-02-24T06:46:10.362Z,14.70
2018-02-24T06:48:37.823Z,14.18
2018-02-24T06:51:05.300Z,15.35
2018-02-24T06:53:32.778Z,14.82
2018-02-24T06:56:00.246Z,15.32
2018-02-24T06:58:28.483Z,14.25
2018-02-24T07:00:55.966Z,14.55
2018-02-24T07:03:23.451Z,14.65
2018-02-24T07:05:51.683Z,15.73
2018-02-24T07:08:19.166Z,14.27
2018-02-24T07:10:47.399Z,14.30
2018-02-24T07:13:14.887Z,13.82
2018-02-24T07:15:43.266Z,14.93
2018-02-24T07:18:10.735Z,14.40
2018-02-24T07:20:38.969Z,14.52
2018-02-24T07:23:06.466Z,15.02
2018-02-24T07:25:33.923Z,14.43
2018-02-24T07:28:02.149Z,15.90
2018-02-24T07:30:29.656Z,16.05
2018-02-24T07:32:57.149Z,12.95
2018-02-24T07:35:24.623Z,14.60
2018-02-24T07:37:52.097Z,14.25
2018-02-24T07:40:20.747Z,14.93
2018-02-24T07:42:48.227Z,14.10
2018-02-24T07:45:15.706Z,15.60
2018-02-24T07:47:43.166Z,15.40
2018-02-24T07:50:10.632Z,14.18
2018-02-24T07:52:38.880Z,15.27
2018-02-24T07:55:06.338Z,12.55
2018-02-24T07:57:33.868Z,13.88
2018-02-24T08:00:01.374Z,13.48
2018-02-24T08:02:29.610Z,12.73
2018-02-24T08:04:57.111Z,15.32
2018-02-24T08:07:24.577Z,11.95
2018-02-24T08:09:52.820Z,16.27
2018-02-24T08:12:20.319Z,14.50
2018-02-24T08:14:48.542Z,15.70
2018-02-24T08:17:16.073Z,14.68
2018-02-24T08:19:43.511Z,15.70
2018-02-24T08:22:12.840Z,13.20
2018-02-24T08:24:40.334Z,15.35
2018-02-24T08:27:08.562Z,14.27
2018-02-24T08:29:36.040Z,13.48
2018-02-24T08:32:03.528Z,14.27
2018-02-24T08:34:31.768Z,14.13
2018-02-24T08:36:59.246Z,14.00
2018-02-24T08:39:26.791Z,13.23
2018-02-24T08:41:54.262Z,14.00
2018-02-24T08:44:22.203Z,13.13
2018-02-24T08:46:49.712Z,14.53
2018-02-24T08:49:18.034Z,13.40
2018-02-24T08:51:45.516Z,13.90
2018-02-24T08:54:12.990Z,12.33
2018-02-24T08:56:41.238Z,12.77
2018-02-24T08:59:08.726Z,12.77
2018-02-24T09:01:36.227Z,14.40
2018-02-24T09:04:03.690Z,13.00
2018-02-24T09:06:31.183Z,13.47
2018-02-24T09:08:58.670Z,11.83
2018-02-24T09:11:26.252Z,11.30
2018-02-24T09:13:53.734Z,10.00
2018-02-24T09:16:21.207Z,10.00
2018-02-24T09:18:49.438Z,10.73
2018-02-24T09:21:16.936Z,11.80
2018-02-24T09:23:44.405Z,11.48
2018-02-24T09:26:12.655Z,10.77
2018-02-24T09:28:40.158Z,10.27
2018-02-24T09:31:07.626Z,11.70
2018-02-24T09:33:35.102Z,11.65
2018-02-24T09:36:02.599Z,11.03
2018-02-24T09:38:30.055Z,11.77
2018-02-24T09:40:57.571Z,10.40
2018-02-24T09:43:25.062Z,10.27
2018-02-24T09:45:52.548Z,10.87
2018-02-24T09:48:20.007Z,10.00
2018-02-24T09:50:48.265Z,11.00
2018-02-24T09:53:15.747Z,11.40
2018-02-24T09:55:44.003Z,11.30
2018-02-24T09:58:11.486Z,9.87
2018-02-24T10:00:38.966Z,9.80
2018-02-24T10:03:06.452Z,11.07
2018-02-24T10:05:33.955Z,11.63
2018-02-24T10:08:02.186Z,8.93
2018-02-24T10:10:29.664Z,11.67
2018-02-24T10:12:57.133Z,10.10
2018-02-24T10:15:25.378Z,9.03
2018-02-24T10:17:52.894Z,10.50
2018-02-24T10:20:20.347Z,10.10
2018-02-24T10:22:47.805Z,9.63
2018-02-24T10:25:15.315Z,11.93
2018-02-24T10:27:42.781Z,10.40
2018-02-24T10:30:11.019Z,10.50
2018-02-24T10:32:38.504Z,9.60
2018-02-24T10:35:05.991Z,10.33
2018-02-24T10:37:34.244Z,10.27
2018-02-24T10:40:03.223Z,9.00
2018-02-24T10:42:31.465Z,9.63
2018-02-24T10:44:58.928Z,10.40
2018-02-24T10:47:26.398Z,9.00
2018-02-24T10:49:53.855Z,8.90
2018-02-24T10:52:21.307Z,8.93
2018-02-24T10:54:51.079Z,9.03
2018-02-24T10:57:18.539Z,8.93
2018-02-24T10:59:46.023Z,8.00
2018-02-24T11:02:13.499Z,10.20
2018-02-24T11:04:40.974Z,8.97
2018-02-24T11:07:08.431Z,10.20
2018-02-24T11:09:36.684Z,9.67
2018-02-24T11:12:04.139Z,9.83
2018-02-24T11:14:31.614Z,10.27
2018-02-24T11:16:59.119Z,9.07
2018-02-24T11:19:26.574Z,10.37
2018-02-24T11:21:54.041Z,10.87
2018-02-24T11:24:21.511Z,10.50
2018-02-24T11:26:48.989Z,9.50
2018-02-24T11:29:16.443Z,9.60
2018-02-24T11:31:43.912Z,9.87
2018-02-24T11:34:11.365Z,9.47
2018-02-24T11:36:40.210Z,8.97
2018-02-24T11:39:07.662Z,8.93
2018-02-24T11:41:35.128Z,9.23
2018-02-24T11:44:02.615Z,10.03
2018-02-24T11:46:30.854Z,6.93
2018-02-24T11:48:58.385Z,8.93
2018-02-24T11:51:25.907Z,8.47
2018-02-24T11:53:53.388Z,8.97
2018-02-24T11:56:21.623Z,9.27
2018-02-24T11:58:49.123Z,9.80
2018-02-24T12:01:17.362Z,8.70
2018-02-24T12:03:44.933Z,8.40
2018-02-24T12:06:12.407Z,8.03
2018-02-24T12:08:40.634Z,9.50
2018-02-24T12:11:08.107Z,8.83
2018-02-24T12:13:35.575Z,8.50
2018-02-24T12:16:04.544Z,7.40
2018-02-24T12:18:32.011Z,8.90
2018-02-24T12:20:59.487Z,7.00
2018-02-24T12:23:27.004Z,8.07
2018-02-24T12:25:54.484Z,7.83
2018-02-24T12:28:21.963Z,7.83
2018-02-24T12:30:50.203Z,7.70
2018-02-24T12:33:17.742Z,7.47
2018-02-24T12:35:45.223Z,6.70
2018-02-24T12:38:12.701Z,7.30
2018-02-24T12:40:40.184Z,7.70
2018-02-24T12:43:08.443Z,7.03
2018-02-24T12:45:37.310Z,7.87
2018-02-24T12:48:04.811Z,7.57
2018-02-24T12:50:32.281Z,7.50
2018-02-24T12:52:59.743Z,6.27
2018-02-24T12:55:28.131Z,6.73
2018-02-24T12:57:55.590Z,7.40
2018-02-24T13:00:23.078Z,6.90
2018-02-24T13:02:51.309Z,6.40
2018-02-24T13:05:18.781Z,7.57
2018-02-24T13:07:46.272Z,5.77
2018-02-24T13:10:13.738Z,7.37
2018-02-24T13:12:41.970Z,5.77
2018-02-24T13:15:09.438Z,6.87
2018-02-24T13:17:36.917Z,7.23
2018-02-24T13:20:05.919Z,7.33
2018-02-24T13:22:34.155Z,5.80
2018-02-24T13:25:01.634Z,7.03
2018-02-24T13:27:29.111Z,6.43
2018-02-24T13:29:57.346Z,5.90
2018-02-24T13:32:24.881Z,5.73
2018-02-24T13:34:53.070Z,6.27
2018-02-24T13:37:20.560Z,6.80
2018-02-24T13:39:48.016Z,6.17
2018-02-24T13:42:15.568Z,6.43
2018-02-24T13:44:43.051Z,6.50
2018-02-24T13:47:11.300Z,6.47
2018-02-24T13:49:39.557Z,6.70
2018-02-24T13:52:07.015Z,6.37
2018-02-24T13:54:34.522Z,6.30
2018-02-24T13:57:02.895Z,5.27
2018-02-24T13:59:31.127Z,6.27
2018-02-24T14:01:58.649Z,6.23
2018-02-24T14:04:26.111Z,5.30
2018-02-24T14:06:53.592Z,6.00
2018-02-24T14:09:21.075Z,6.60
2018-02-24T14:11:48.556Z,6.53
2018-02-24T14:14:16.027Z,5.27
2018-02-24T14:16:43.494Z,4.83
2018-02-24T14:19:10.988Z,5.40
2018-02-24T14:21:38.429Z,5.03
2018-02-24T14:24:05.946Z,4.17
2018-02-24T14:26:33.404Z,4.40
2018-02-24T14:29:00.904Z,4.87
2018-02-24T14:31:28.365Z,4.90
2018-02-24T14:33:55.871Z,4.80
2018-02-24T14:36:23.355Z,4.10
2018-02-24T14:38:50.807Z,4.20
2018-02-24T14:41:18.314Z,4.20
2018-02-24T14:43:46.540Z,4.07
2018-02-24T14:46:14.954Z,4.60
2018-02-24T14:48:42.415Z,4.60
2018-02-24T14:51:09.887Z,4.20
2018-02-24T14:53:38.131Z,5.00
2018-02-24T14:56:05.654Z,5.07
2018-02-24T14:58:33.222Z,3.40
2018-02-24T15:01:00.691Z,5.37
2018-02-24T15:03:28.166Z,4.33
2018-02-24T15:05:55.656Z,5.00
2018-02-24T15:08:23.932Z,4.80
2018-02-24T15:10:51.439Z,4.80
2018-02-24T15:13:18.903Z,3.77
2018-02-24T15:15:46.369Z,4.53
2018-02-24T15:18:13.857Z,4.80
2018-02-24T15:20:42.092Z,4.17
2018-02-24T15:23:09.566Z,4.90
2018-02-24T15:25:37.039Z,4.23
2018-02-24T15:28:05.276Z,4.97
2018-02-24T15:30:32.785Z,4.73
2018-02-24T15:33:00.234Z,4.17
2018-02-24T15:35:28.501Z,3.87
2018-02-24T15:37:56.758Z,3.55
2018-02-24T15:40:24.222Z,4.33
2018-02-24T15:42:52.897Z,4.25
2018-02-24T15:45:20.364Z,4.57
2018-02-24T15:47:48.613Z,4.53
2018-02-24T15:50:16.094Z,4.78
2018-02-24T15:52:44.365Z,4.40
2018-02-24T15:55:11.846Z,5.43
2018-02-24T15:57:39.335Z,5.18
2018-02-24T16:00:06.818Z,5.15
2018-02-24T16:02:34.297Z,5.28
2018-02-24T16:05:01.778Z,5.40
2018-02-24T16:07:29.246Z,4.82
2018-02-24T16:09:56.751Z,6.07
2018-02-24T16:12:24.224Z,5.20
2018-02-24T16:14:52.462Z,6.07
2018-02-24T16:17:19.947Z,5.40
2018-02-24T16:19:47.402Z,4.40
2018-02-24T16:22:14.890Z,5.25
2018-02-24T16:24:43.131Z,5.25
2018-02-24T16:27:10.602Z,5.60
2018-02-24T16:29:38.871Z,5.87
2018-02-24T16:32:06.326Z,5.12
2018-02-24T16:34:33.796Z,7.10
2018-02-24T16:37:02.062Z,5.85
2018-02-24T16:39:29.542Z,5.78
2018-02-24T16:41:57.799Z,6.53
2018-02-24T16:44:26.035Z,6.32
2018-02-24T16:46:53.500Z,6.15
2018-02-24T16:49:21.464Z,6.53
2018-02-24T16:51:48.932Z,5.12
2018-02-24T16:54:16.402Z,6.10
2018-02-24T16:56:43.888Z,7.43
2018-02-24T16:59:12.133Z,5.72
2018-02-24T17:01:40.863Z,6.82
2018-02-24T17:04:08.364Z,7.85
2018-02-24T17:06:35.827Z,6.28
2018-02-24T17:09:03.292Z,6.70
2018-02-24T17:11:30.788Z,6.47
2018-02-24T17:13:58.261Z,6.72
2018-02-24T17:16:25.748Z,6.37
2018-02-24T17:18:54.075Z,5.43
2018-02-24T17:21:21.539Z,5.90
2018-02-24T17:23:49.039Z,6.93
2018-02-24T17:26:16.518Z,7.22
2018-02-24T17:28:43.979Z,6.05
2018-02-24T17:31:12.235Z,6.20
2018-02-24T17:33:39.687Z,6.60
2018-02-24T17:36:07.153Z,5.78
2018-02-24T17:38:34.640Z,6.22
2018-02-24T17:41:02.880Z,6.65
2018-02-24T17:43:31.284Z,7.00
2018-02-24T17:45:59.509Z,6.37
2018-02-24T17:48:27.012Z,5.65
2018-02-24T17:50:55.255Z,5.00
2018-02-24T17:53:22.733Z,6.43
2018-02-24T17:55:50.217Z,4.97
2018-02-24T17:58:17.673Z,5.20
2018-02-24T18:00:45.151Z,5.00
2018-02-24T18:03:12.678Z,5.10
2018-02-24T18:05:40.911Z,5.30
2018-02-24T18:08:08.371Z,4.78
2018-02-24T18:10:35.860Z,5.80
2018-02-24T18:13:04.086Z,4.85
2018-02-24T18:15:31.538Z,5.20
2018-02-24T18:17:59.012Z,4.05
2018-02-24T18:20:26.468Z,4.78
2018-02-24T18:22:53.932Z,4.47
2018-02-24T18:25:21.427Z,4.18
2018-02-24T18:27:48.876Z,3.70
2018-02-24T18:30:16.327Z,4.45
2018-02-24T18:32:44.587Z,3.72
2018-02-24T18:35:12.049Z,3.60
2018-02-24T18:37:40.279Z,3.25
2018-02-24T18:40:07.771Z,3.70
2018-02-24T18:42:35.238Z,3.85
2018-02-24T18:45:03.479Z,4.10
2018-02-24T18:47:30.969Z,3.72
2018-02-24T18:49:58.437Z,3.40
2018-02-24T18:52:26.675Z,3.62
2018-02-24T18:54:54.163Z,3.40
2018-02-24T18:57:22.439Z,2.95
2018-02-24T18:59:50.672Z,2.83
2018-02-24T19:02:18.172Z,2.90
2018-02-24T19:04:46.431Z,2.78
2018-02-24T19:07:13.907Z,3.10
2018-02-24T19:09:42.155Z,2.75
2018-02-24T19:12:09.628Z,2.40
2018-02-24T19:14:37.884Z,2.53
2018-02-24T19:17:05.388Z,2.92
2018-02-24T19:19:32.868Z,2.10
2018-02-24T19:22:00.324Z,2.58
2018-02-24T19:24:27.884Z,2.75
2018-02-24T19:26:55.339Z,2.22
2018-02-24T19:29:22.818Z,2.03
2018-02-24T19:31:50.311Z,2.20
2018-02-24T19:34:18.545Z,2.00
2018-02-24T19:36:46.023Z,2.00
2018-02-24T19:39:13.487Z,1.60
2018-02-24T19:41:41.773Z,2.37
2018-02-24T19:44:10.019Z,2.15
2018-02-24T19:46:37.512Z,1.90
2018-02-24T19:49:05.745Z,2.12
2018-02-24T19:51:33.219Z,1.95
2018-02-24T19:54:00.716Z,2.42
2018-02-24T19:56:28.192Z,2.10
2018-02-24T19:58:55.651Z,1.85
2018-02-24T20:01:23.131Z,2.10
2018-02-24T20:03:50.599Z,2.30
2018-02-24T20:06:18.095Z,2.25
2018-02-24T20:08:45.595Z,2.42
2018-02-24T20:11:13.062Z,2.30
2018-02-24T20:13:41.315Z,1.80
2018-02-24T20:16:08.776Z,2.60
2018-02-24T20:18:36.257Z,2.45
2018-02-24T20:21:03.828Z,2.35
2018-02-24T20:23:31.242Z,2.45
2018-02-24T20:25:58.698Z,2.30
2018-02-24T20:28:26.184Z,2.70
2018-02-24T20:30:53.658Z,2.50
2018-02-24T20:33:21.930Z,2.03
2018-02-24T20:35:49.432Z,2.40
2018-02-24T20:38:16.902Z,2.33
2018-02-24T20:40:44.380Z,2.00
2018-02-24T20:43:11.873Z,2.35
2018-02-24T20:45:40.146Z,2.28
2018-02-24T20:48:08.395Z,2.65
2018-02-24T20:50:35.874Z,2.40
2018-02-24T20:53:04.146Z,1.90
2018-02-24T20:55:32.399Z,2.17
2018-02-24T20:57:59.872Z,2.50
2018-02-24T21:00:28.120Z,2.50
2018-02-24T21:02:55.583Z,2.25
2018-02-24T21:05:23.151Z,2.22
2018-02-24T21:07:50.623Z,1.70
2018-02-24T21:10:18.878Z,2.80
2018-02-24T21:12:46.403Z,2.00
2018-02-24T21:15:13.886Z,2.40
2018-02-24T21:17:41.409Z,2.58
2018-02-24T21:20:08.877Z,3.05
2018-02-24T21:22:36.378Z,2.53
2018-02-24T21:25:04.631Z,3.08
2018-02-24T21:27:32.136Z,2.50
2018-02-24T21:29:59.627Z,2.45
2018-02-24T21:32:27.090Z,2.10
2018-02-24T21:34:54.578Z,1.70
2018-02-24T21:37:22.070Z,2.95
2018-02-24T21:39:49.539Z,3.08
2018-02-24T21:42:16.998Z,2.60
2018-02-24T21:44:44.487Z,2.00
2018-02-24T21:47:12.827Z,2.47
2018-02-24T21:49:40.313Z,2.10
2018-02-24T21:52:07.832Z,2.45
2018-02-24T21:54:37.288Z,2.97
2018-02-24T21:57:04.754Z,2.70
2018-02-24T21:59:32.231Z,3.00
2018-02-24T22:01:59.703Z,3.03
2018-02-24T22:04:27.171Z,3.00
2018-02-24T22:06:54.707Z,2.90
2018-02-24T22:09:22.953Z,2.78
2018-02-24T22:11:50.424Z,1.90
2018-02-24T22:14:18.679Z,2.37
2018-02-24T22:16:46.146Z,2.40
2018-02-24T22:19:13.654Z,2.60
2018-02-24T22:21:41.213Z,2.03
2018-02-24T22:24:08.676Z,2.50
2018-02-24T22:26:36.146Z,2.65
2018-02-24T22:29:03.623Z,2.70
2018-02-24T22:31:31.078Z,2.60
2018-02-24T22:33:58.582Z,2.75
2018-02-24T22:36:26.037Z,2.85
2018-02-24T22:38:53.530Z,2.75
2018-02-24T22:41:20.999Z,2.47
2018-02-24T22:43:48.514Z,2.90
2018-02-24T22:46:16.920Z,2.50
2018-02-24T22:48:50.114Z,2.75
2018-02-24T22:51:17.572Z,2.78
2018-02-24T22:53:45.047Z,2.92
2018-02-24T22:56:12.543Z,2.90
2018-02-24T22:58:40.113Z,2.47
2018-02-24T23:01:07.671Z,2.35
2018-02-24T23:03:35.156Z,3.05
2018-02-24T23:06:02.617Z,2.90
2018-02-24T23:08:30.076Z,2.72
2018-02-24T23:10:57.604Z,2.70
2018-02-24T23:13:25.156Z,2.62
2018-02-24T23:15:52.647Z,2.90
2018-02-24T23:18:20.172Z,2.60
2018-02-24T23:20:47.643Z,2.83
2018-02-24T23:23:15.130Z,3.00
2018-02-24T23:25:44.136Z,2.95
2018-02-24T23:28:11.597Z,2.28
2018-02-24T23:30:39.832Z,2.47
2018-02-24T23:33:07.319Z,3.50
2018-02-24T23:35:34.787Z,3.10
2018-02-24T23:38:03.056Z,2.97
2018-02-24T23:40:30.554Z,2.90
2018-02-24T23:42:58.011Z,2.55
2018-02-24T23:45:25.496Z,2.55
2018-02-24T23:47:52.956Z,2.50
2018-02-24T23:50:20.442Z,3.00
2018-02-24T23:52:48.696Z,2.42
2018-02-24T23:55:16.162Z,3.15
2018-02-24T23:57:44.407Z,2.92
